Affton, Missouri
Current Conditions -  °F | °C
As of 7:07 PM on Saturday 20 Dec 2014 (Local Time) from KCPS Reporting Station
Overcast Overcast  
Wind Chill:   Ceiling: 2900
Heat Index:   Visibility: 10mi
Dew Point:   Wind: 7mph
Humidity: 76%   Direction: 130°SE
Pressure: 30.26"   Gusts: NA
Location:  38.55°N, 90.33°W
Report Text: KCPS 210107Z 13006KT 10SM OVC029 05/01 A3026 RMK AO2 T00500011
Loading
Personal Weather Stations






























Interactive Weather Map New forecast layout! Learn more

10-Day Weather Forecast

Advertisements
Track Severe Weather on mobile